Time;durP1;ratioP1;P1;durP2;ratioP2;P2;SDS_P1;SDS_P2;PMS_P1;PMS_P2;Temp;Humidity;BMP_temperature;BMP_pressure;BME280_temperature;BME280_humidity;BME280_pressure;Samples;Min_cycle;Max_cycle;Signal;HPM_P1;HPM_P2
2022/07/29 00:01:27;;;;;;;3.17;1.20;;;14.70;99.90;;;;;;5053346;28;20106;-75
2022/07/29 00:03:54;;;;;;;2.97;1.50;;;14.90;99.90;;;;;;5071447;28;20430;-75
2022/07/29 00:06:21;;;;;;;5.28;1.60;;;14.90;99.90;;;;;;5054370;28;20049;-75
2022/07/29 00:08:49;;;;;;;2.65;1.10;;;14.90;99.90;;;;;;5055166;28;20119;-75
2022/07/29 00:11:16;;;;;;;3.05;1.20;;;14.90;99.90;;;;;;5054216;28;20045;-74
2022/07/29 00:13:43;;;;;;;4.88;1.23;;;14.90;99.90;;;;;;5054261;28;20519;-75
2022/07/29 00:16:10;;;;;;;2.83;1.20;;;14.90;99.90;;;;;;5054701;28;20111;-73
2022/07/29 00:18:37;;;;;;;3.28;1.20;;;14.90;99.90;;;;;;5054520;28;20493;-74
2022/07/29 00:21:04;;;;;;;4.35;1.50;;;15.00;99.90;;;;;;5053944;28;20186;-75
2022/07/29 00:23:31;;;;;;;3.58;1.20;;;15.00;99.90;;;;;;5054228;28;20052;-75
2022/07/29 00:25:59;;;;;;;4.72;1.80;;;15.00;99.90;;;;;;5054422;28;20053;-75
2022/07/29 00:28:26;;;;;;;3.10;1.67;;;15.00;99.90;;;;;;5053895;28;20098;-75
2022/07/29 00:30:53;;;;;;;4.00;1.63;;;15.00;99.90;;;;;;5053559;28;20441;-74
2022/07/29 00:33:20;;;;;;;4.03;1.48;;;14.90;99.90;;;;;;5055011;28;20057;-75
2022/07/29 00:35:46;;;;;;;2.30;1.30;;;15.00;99.90;;;;;;5054504;28;20049;-74
2022/07/29 00:38:15;;;;;;;3.55;1.20;;;15.00;99.90;;;;;;5054669;28;20071;-74
2022/07/29 00:40:42;;;;;;;5.07;1.48;;;15.00;99.90;;;;;;5055062;28;20049;-74
2022/07/29 00:43:11;;;;;;;2.97;1.35;;;15.00;99.90;;;;;;5054070;28;20056;-75
2022/07/29 00:45:38;;;;;;;2.65;1.20;;;14.90;99.90;;;;;;5052718;28;20049;-74
2022/07/29 00:48:06;;;;;;;3.22;1.33;;;15.00;99.90;;;;;;5056167;28;20118;-74
2022/07/29 00:50:33;;;;;;;5.15;1.60;;;15.00;99.90;;;;;;5056291;28;20136;-74
2022/07/29 00:53:01;;;;;;;3.00;1.75;;;15.00;99.90;;;;;;5054717;28;20512;-75
2022/07/29 00:55:28;;;;;;;5.85;1.35;;;15.00;99.90;;;;;;5054963;28;20552;-75
2022/07/29 00:57:56;;;;;;;2.70;1.55;;;15.00;99.90;;;;;;5053294;28;20448;-73
2022/07/29 01:00:26;;;;;;;4.00;1.38;;;15.00;99.90;;;;;;5053362;28;20052;-75
2022/07/29 01:02:52;;;;;;;1.98;1.20;;;15.00;99.90;;;;;;5054846;28;20061;-75
2022/07/29 01:05:22;;;;;;;6.78;1.80;;;14.90;99.90;;;;;;5052570;28;20501;-75
2022/07/29 01:07:52;;;;;;;4.30;1.60;;;15.00;99.90;;;;;;5054790;28;20099;-74
2022/07/29 01:10:20;;;;;;;4.93;1.67;;;15.00;99.90;;;;;;5053515;28;20048;-75
2022/07/29 01:12:49;;;;;;;3.85;1.20;;;15.00;99.90;;;;;;5053699;28;20048;-75
2022/07/29 01:15:17;;;;;;;6.63;1.65;;;15.00;99.90;;;;;;5053557;28;20087;-75
2022/07/29 01:17:49;;;;;;;1.95;1.30;;;15.00;99.90;;;;;;5053705;28;20049;-75
2022/07/29 01:20:23;;;;;;;2.67;1.52;;;15.00;99.90;;;;;;5052559;28;20056;-75
2022/07/29 01:23:12;;;;;;;2.72;1.50;;;15.00;99.90;;;;;;5052583;28;20068;-75
2022/07/29 01:25:54;;;;;;;3.92;1.60;;;15.00;99.90;;;;;;5052634;28;20053;-75
2022/07/29 01:28:45;;;;;;;3.13;1.30;;;15.00;99.90;;;;;;5062990;28;20455;-75
2022/07/29 01:31:15;;;;;;;5.15;1.83;;;14.90;99.90;;;;;;5048842;28;20053;-74
2022/07/29 01:33:52;;;;;;;3.33;1.30;;;14.90;99.90;;;;;;5052604;28;20080;-74
2022/07/29 01:36:26;;;;;;;7.10;1.63;;;14.90;99.90;;;;;;5052768;28;20083;-75
2022/07/29 01:38:59;;;;;;;6.32;1.65;;;14.90;99.90;;;;;;5054521;28;20102;-74
2022/07/29 01:41:32;;;;;;;5.63;1.48;;;14.90;99.90;;;;;;5053339;28;20049;-75
2022/07/29 01:44:03;;;;;;;4.03;1.60;;;14.90;99.90;;;;;;5054307;28;20118;-75
2022/07/29 01:46:35;;;;;;;2.45;1.45;;;14.80;99.90;;;;;;5053055;28;20555;-74
2022/07/29 01:49:09;;;;;;;3.22;1.55;;;14.90;99.90;;;;;;5051953;28;20061;-76
2022/07/29 01:51:44;;;;;;;5.35;1.60;;;14.80;99.90;;;;;;5033825;28;20096;-75
2022/07/29 01:54:17;;;;;;;3.47;1.42;;;14.80;99.90;;;;;;5043916;28;20045;-75
2022/07/29 01:56:46;;;;;;;3.65;1.63;;;14.90;99.90;;;;;;5052292;28;20049;-74
2022/07/29 01:59:16;;;;;;;2.92;1.40;;;14.90;99.90;;;;;;5053677;28;20103;-73
2022/07/29 02:01:45;;;;;;;8.07;1.50;;;14.80;99.90;;;;;;5051678;28;20053;-74
2022/07/29 02:04:13;;;;;;;3.45;1.77;;;14.90;99.90;;;;;;5053556;28;20048;-74
2022/07/29 02:06:43;;;;;;;4.60;1.63;;;14.90;99.90;;;;;;5053261;28;20045;-74
2022/07/29 02:09:12;;;;;;;2.35;1.38;;;14.90;99.90;;;;;;5051945;28;20558;-74
2022/07/29 02:11:40;;;;;;;5.00;1.67;;;14.90;99.90;;;;;;5053719;28;20048;-74
2022/07/29 02:14:11;;;;;;;3.08;1.35;;;14.90;99.90;;;;;;5053676;28;20049;-74
2022/07/29 02:16:41;;;;;;;4.55;1.65;;;14.90;99.90;;;;;;5051537;28;20049;-74
2022/07/29 02:19:09;;;;;;;4.10;1.73;;;14.80;99.90;;;;;;5053395;28;20096;-74
2022/07/29 02:21:36;;;;;;;4.55;1.88;;;14.90;99.90;;;;;;5053136;28;20053;-74
2022/07/29 02:24:05;;;;;;;5.30;1.75;;;14.90;99.90;;;;;;5051635;28;20049;-75
2022/07/29 02:26:34;;;;;;;4.65;1.52;;;14.90;99.90;;;;;;5053535;28;20049;-75
2022/07/29 02:29:02;;;;;;;2.70;1.60;;;14.90;99.90;;;;;;5051635;28;20091;-75
2022/07/29 02:31:33;;;;;;;4.65;1.58;;;14.90;99.90;;;;;;5051704;28;20098;-75
2022/07/29 02:34:04;;;;;;;2.65;1.60;;;14.90;99.90;;;;;;5051685;28;20087;-75
2022/07/29 02:36:32;;;;;;;6.57;1.65;;;14.90;99.90;;;;;;5051527;28;20400;-75
2022/07/29 02:39:00;;;;;;;4.88;1.83;;;14.90;99.90;;;;;;5052341;28;20056;-73
2022/07/29 02:41:31;;;;;;;3.92;1.70;;;14.90;99.90;;;;;;5052091;28;20057;-74
2022/07/29 02:44:04;;;;;;;4.68;1.63;;;14.90;99.90;;;;;;5051417;28;20052;-75
2022/07/29 02:46:35;;;;;;;4.95;1.52;;;14.90;99.90;;;;;;5051642;28;20151;-76
2022/07/29 02:49:10;;;;;;;2.65;1.45;;;14.90;99.90;;;;;;5051765;28;20059;-75
2022/07/29 02:51:43;;;;;;;3.08;1.60;;;14.90;99.90;;;;;;5051526;28;20505;-75
2022/07/29 02:54:15;;;;;;;5.72;1.90;;;14.90;99.90;;;;;;5053567;28;20060;-73
2022/07/29 02:56:44;;;;;;;5.72;1.83;;;14.90;99.90;;;;;;5052834;28;20053;-73
2022/07/29 02:59:14;;;;;;;3.08;1.58;;;14.90;99.90;;;;;;5051899;28;20060;-74
2022/07/29 03:01:44;;;;;;;4.20;1.35;;;14.90;99.90;;;;;;5052917;28;20045;-74
2022/07/29 03:04:14;;;;;;;3.80;1.45;;;14.90;99.90;;;;;;5051075;28;20056;-74
2022/07/29 03:06:44;;;;;;;3.05;1.58;;;14.90;99.90;;;;;;5053004;28;20060;-75
2022/07/29 03:09:12;;;;;;;4.70;1.70;;;14.90;99.90;;;;;;5056986;28;20145;-74
2022/07/29 03:11:40;;;;;;;4.63;2.03;;;14.90;99.90;;;;;;5054618;28;20060;-72
2022/07/29 03:14:08;;;;;;;5.10;1.92;;;15.00;99.90;;;;;;5056900;28;20501;-74
2022/07/29 03:16:36;;;;;;;2.75;1.20;;;14.90;99.90;;;;;;5055412;28;20551;-74
2022/07/29 03:19:04;;;;;;;3.13;2.00;;;14.90;99.90;;;;;;5033584;28;20052;-74
2022/07/29 03:21:34;;;;;;;5.68;1.60;;;14.90;99.90;;;;;;5051814;28;20081;-75
2022/07/29 03:24:01;;;;;;;5.00;2.15;;;14.90;99.90;;;;;;5041367;28;20048;-75
2022/07/29 03:26:28;;;;;;;7.47;1.98;;;14.90;99.90;;;;;;5054257;28;20072;-75
2022/07/29 03:28:55;;;;;;;3.50;1.65;;;14.90;99.90;;;;;;5056604;28;20048;-75
2022/07/29 03:31:22;;;;;;;3.08;1.70;;;14.90;99.90;;;;;;5054998;28;20052;-75
2022/07/29 03:33:49;;;;;;;6.32;1.95;;;14.90;99.90;;;;;;5055595;28;20052;-74
2022/07/29 03:36:16;;;;;;;6.68;2.00;;;14.80;99.90;;;;;;5057514;28;20053;-74
2022/07/29 03:38:45;;;;;;;3.53;1.38;;;14.80;99.90;;;;;;5057674;28;20084;-75
2022/07/29 03:41:14;;;;;;;5.53;1.45;;;14.80;99.90;;;;;;5054075;28;20110;-74
2022/07/29 03:43:43;;;;;;;3.13;1.50;;;14.80;99.90;;;;;;5055900;28;20053;-74
2022/07/29 03:46:12;;;;;;;3.25;1.60;;;14.80;99.90;;;;;;5055488;28;20077;-75
2022/07/29 03:48:46;;;;;;;3.90;1.70;;;14.80;99.90;;;;;;5054976;28;20085;-74
2022/07/29 03:51:14;;;;;;;3.65;1.67;;;14.80;99.90;;;;;;5054907;28;20099;-75
2022/07/29 03:53:41;;;;;;;4.55;2.33;;;14.80;99.90;;;;;;5054140;28;20405;-74
2022/07/29 03:56:15;;;;;;;3.50;1.42;;;14.80;99.90;;;;;;5054369;28;20493;-74
2022/07/29 03:58:42;;;;;;;5.40;2.10;;;14.80;99.90;;;;;;5054854;28;20053;-75
2022/07/29 04:01:10;;;;;;;3.15;1.40;;;14.80;99.90;;;;;;5055045;28;20080;-75
2022/07/29 04:03:37;;;;;;;2.88;1.45;;;14.80;99.90;;;;;;5055054;28;20064;-75
2022/07/29 04:06:06;;;;;;;3.97;1.67;;;14.80;99.90;;;;;;5054540;28;20045;-75
2022/07/29 04:08:33;;;;;;;3.35;1.60;;;14.80;99.90;;;;;;5054020;28;20136;-75
2022/07/29 04:11:00;;;;;;;3.85;1.77;;;14.80;99.90;;;;;;5054277;28;20067;-73
2022/07/29 04:13:28;;;;;;;4.03;1.60;;;14.80;99.90;;;;;;5055624;28;20056;-74
2022/07/29 04:15:55;;;;;;;2.80;1.52;;;14.80;99.90;;;;;;5054218;28;20060;-75
2022/07/29 04:18:22;;;;;;;3.88;1.80;;;14.80;99.90;;;;;;5054539;28;20049;-73
2022/07/29 04:20:49;;;;;;;6.28;1.75;;;14.80;99.90;;;;;;5053546;28;20045;-74
2022/07/29 04:23:16;;;;;;;5.53;1.55;;;14.90;99.90;;;;;;5053806;28;20614;-75
2022/07/29 04:25:43;;;;;;;4.00;1.80;;;14.90;99.90;;;;;;5055474;28;20056;-73
2022/07/29 04:28:11;;;;;;;6.00;1.80;;;14.90;99.90;;;;;;5054586;28;20049;-75
2022/07/29 04:30:39;;;;;;;4.45;1.73;;;14.90;99.90;;;;;;5036559;28;20134;-74
2022/07/29 04:33:07;;;;;;;4.40;1.65;;;15.10;99.90;;;;;;5034244;28;20111;-72
2022/07/29 04:35:36;;;;;;;6.10;1.65;;;15.20;99.90;;;;;;5037489;28;20076;-74
2022/07/29 04:38:03;;;;;;;4.20;1.52;;;15.40;99.90;;;;;;5051162;28;20049;-74
2022/07/29 04:40:30;;;;;;;10.32;1.88;;;15.50;99.90;;;;;;5047905;28;20548;-74
2022/07/29 04:42:57;;;;;;;3.58;1.85;;;15.60;99.90;;;;;;5048525;28;20112;-74
2022/07/29 04:45:24;;;;;;;5.63;1.55;;;15.90;99.90;;;;;;5051351;28;20064;-75
2022/07/29 04:47:52;;;;;;;3.20;1.50;;;16.10;99.90;;;;;;5046930;28;20520;-75
2022/07/29 04:50:19;;;;;;;8.05;1.60;;;16.30;99.90;;;;;;5048460;28;20107;-75
2022/07/29 04:52:46;;;;;;;4.72;1.67;;;16.20;99.90;;;;;;5046085;28;20455;-74
2022/07/29 04:55:13;;;;;;;4.10;1.70;;;16.20;99.90;;;;;;5048312;28;20049;-75
2022/07/29 04:57:40;;;;;;;3.60;1.58;;;16.30;99.90;;;;;;5046251;28;20481;-74
2022/07/29 05:00:08;;;;;;;4.10;1.50;;;16.20;99.90;;;;;;5055702;28;20052;-75
2022/07/29 05:02:35;;;;;;;3.47;1.30;;;16.40;99.90;;;;;;5047816;28;20040;-75
2022/07/29 05:05:03;;;;;;;4.53;1.90;;;16.40;99.90;;;;;;5044322;28;20140;-74
2022/07/29 05:07:30;;;;;;;4.97;1.70;;;16.40;99.90;;;;;;5045665;28;20049;-74
2022/07/29 05:09:57;;;;;;;5.70;1.48;;;16.40;99.90;;;;;;5044464;28;20467;-73
2022/07/29 05:12:24;;;;;;;3.35;1.50;;;16.70;99.90;;;;;;5049497;28;20106;-74
2022/07/29 05:14:51;;;;;;;7.78;2.40;;;16.60;99.90;;;;;;5046484;28;20058;-74
2022/07/29 05:17:18;;;;;;;4.10;1.25;;;16.60;99.90;;;;;;5049346;28;20492;-74
2022/07/29 05:19:46;;;;;;;6.45;1.85;;;16.50;99.90;;;;;;5042555;28;20045;-74
2022/07/29 05:22:14;;;;;;;5.15;1.58;;;16.70;99.90;;;;;;5037770;28;20041;-75
2022/07/29 05:24:41;;;;;;;3.58;1.77;;;16.60;99.90;;;;;;5047556;28;20493;-74
2022/07/29 05:27:08;;;;;;;2.90;1.25;;;16.60;99.90;;;;;;5045961;28;20041;-73
2022/07/29 05:29:34;;;;;;;3.58;1.38;;;16.60;99.90;;;;;;5046608;28;20122;-74
2022/07/29 05:32:01;;;;;;;4.78;1.45;;;16.50;99.90;;;;;;5043588;28;20547;-72
2022/07/29 05:34:28;;;;;;;3.47;1.60;;;16.60;99.90;;;;;;5067547;28;20631;-74
2022/07/29 05:36:55;;;;;;;8.40;2.03;;;16.60;99.90;;;;;;5047375;28;20098;-73
2022/07/29 05:39:24;;;;;;;4.13;1.40;;;16.60;99.90;;;;;;5045318;28;20064;-73
2022/07/29 05:41:51;;;;;;;5.10;1.60;;;16.60;99.90;;;;;;5048471;28;20045;-74
2022/07/29 05:44:18;;;;;;;3.25;1.55;;;16.60;99.90;;;;;;5038294;28;20057;-74
2022/07/29 05:46:45;;;;;;;4.57;1.60;;;16.70;99.90;;;;;;5026213;28;20168;-74
2022/07/29 05:49:12;;;;;;;3.88;1.40;;;16.80;99.90;;;;;;5047527;28;20088;-74
2022/07/29 05:51:39;;;;;;;3.65;1.67;;;16.90;99.90;;;;;;5034994;28;20045;-74
2022/07/29 05:54:06;;;;;;;2.75;1.27;;;16.90;99.90;;;;;;5037865;28;20063;-73
2022/07/29 05:56:34;;;;;;;3.55;1.90;;;16.90;99.90;;;;;;5043900;28;20411;-74
2022/07/29 05:59:01;;;;;;;5.00;1.60;;;17.00;99.90;;;;;;5051083;28;20063;-73
2022/07/29 06:01:28;;;;;;;3.42;1.90;;;17.00;99.90;;;;;;5036700;28;20053;-74
2022/07/29 06:03:54;;;;;;;5.15;2.25;;;17.10;99.90;;;;;;5032135;28;20115;-74
2022/07/29 06:06:22;;;;;;;4.22;1.58;;;17.20;99.90;;;;;;5031689;28;20088;-76
2022/07/29 06:08:49;;;;;;;4.90;1.60;;;17.20;99.90;;;;;;5032323;28;20061;-74
2022/07/29 06:11:16;;;;;;;2.85;1.58;;;17.30;99.90;;;;;;5047799;28;20095;-75
2022/07/29 06:13:44;;;;;;;4.25;1.63;;;17.30;99.90;;;;;;5052877;28;20106;-75
2022/07/29 06:16:11;;;;;;;3.42;1.70;;;17.40;99.90;;;;;;5052672;28;20045;-74
2022/07/29 06:18:37;;;;;;;4.20;1.85;;;17.50;99.90;;;;;;5052361;28;20456;-74
2022/07/29 06:21:09;;;;;;;8.40;2.08;;;17.60;99.90;;;;;;5053096;28;20055;-75
2022/07/29 06:23:37;;;;;;;6.20;1.70;;;17.80;99.90;;;;;;5052342;28;20084;-74
2022/07/29 06:26:04;;;;;;;5.80;1.60;;;17.90;99.90;;;;;;5057767;28;20114;-73
2022/07/29 06:28:30;;;;;;;5.55;1.85;;;18.00;99.90;;;;;;5052556;28;20122;-75
2022/07/29 06:30:59;;;;;;;9.60;1.85;;;18.20;99.90;;;;;;5052481;28;20056;-74
2022/07/29 06:33:26;;;;;;;5.30;1.95;;;18.50;99.90;;;;;;5051564;28;20481;-75
2022/07/29 06:35:53;;;;;;;6.80;1.80;;;18.60;99.90;;;;;;5050783;28;20049;-75
2022/07/29 06:38:20;;;;;;;5.53;1.73;;;18.80;99.90;;;;;;5051933;28;20175;-75
2022/07/29 06:41:03;;;;;;;6.32;2.08;;;18.80;99.90;;;;;;5049763;28;20045;-75
2022/07/29 06:43:35;;;;;;;3.50;1.67;;;18.90;99.90;;;;;;5048883;28;20053;-74
2022/07/29 06:46:05;;;;;;;3.20;1.55;;;19.00;99.90;;;;;;5050314;28;20045;-73
2022/07/29 06:48:32;;;;;;;5.18;1.60;;;19.10;99.90;;;;;;5050504;28;20048;-74
2022/07/29 06:51:00;;;;;;;5.97;1.70;;;19.30;99.90;;;;;;5052068;28;20071;-74
2022/07/29 06:53:27;;;;;;;3.80;1.50;;;19.50;99.80;;;;;;5050663;28;20555;-75
2022/07/29 06:55:54;;;;;;;5.85;1.30;;;19.60;99.50;;;;;;5052197;28;20049;-74
2022/07/29 06:58:21;;;;;;;6.90;1.50;;;19.70;99.10;;;;;;5050229;28;20471;-75
2022/07/29 07:00:48;;;;;;;9.07;1.77;;;20.00;99.00;;;;;;5049545;28;20053;-74
2022/07/29 07:03:17;;;;;;;3.53;1.67;;;20.20;98.50;;;;;;5034273;28;20084;-75
2022/07/29 07:17:00;;;;;;;5.25;1.60;;;20.50;95.60;;;;;;5034210;28;20079;-73
2022/07/29 07:19:28;;;;;;;4.93;1.60;;;20.40;96.80;;;;;;5041804;28;20440;-75
2022/07/29 07:21:55;;;;;;;9.93;1.70;;;20.40;96.90;;;;;;5032590;28;20049;-75
2022/07/29 07:24:21;;;;;;;4.30;1.85;;;20.30;96.80;;;;;;5050893;28;20088;-76
2022/07/29 07:26:48;;;;;;;6.35;1.73;;;20.30;96.70;;;;;;5049341;28;20132;-75
2022/07/29 07:29:15;;;;;;;3.45;1.50;;;20.40;96.90;;;;;;5033100;28;20053;-76
2022/07/29 07:31:42;;;;;;;4.55;1.50;;;20.40;96.90;;;;;;5050647;28;20130;-75
2022/07/29 07:34:09;;;;;;;6.28;1.70;;;20.30;96.60;;;;;;5050474;28;20394;-74
2022/07/29 07:36:37;;;;;;;3.92;1.55;;;20.20;96.20;;;;;;5032985;28;20052;-75
2022/07/29 07:39:05;;;;;;;3.35;1.58;;;20.30;96.40;;;;;;5033406;28;20049;-75
2022/07/29 07:41:32;;;;;;;6.65;1.88;;;20.40;96.40;;;;;;5031811;28;20091;-75
2022/07/29 07:43:59;;;;;;;3.80;1.50;;;20.40;96.50;;;;;;5050153;28;20106;-75
2022/07/29 07:46:26;;;;;;;5.00;1.40;;;20.50;96.60;;;;;;5032841;28;20497;-74
2022/07/29 07:48:53;;;;;;;4.43;1.70;;;20.60;96.40;;;;;;5052328;28;20053;-75
2022/07/29 07:51:20;;;;;;;3.78;1.85;;;20.60;96.40;;;;;;5055306;28;20053;-75
2022/07/29 07:53:50;;;;;;;4.60;1.65;;;20.90;96.40;;;;;;5051349;28;20053;-76
2022/07/29 07:56:17;;;;;;;4.63;1.73;;;20.90;96.00;;;;;;5054427;28;20049;-75
2022/07/29 07:58:44;;;;;;;5.30;1.70;;;20.90;95.70;;;;;;5054284;28;20972;-75
2022/07/29 08:01:10;;;;;;;4.60;1.80;;;20.90;95.80;;;;;;5037020;28;20061;-75
2022/07/29 08:03:38;;;;;;;7.32;1.70;;;21.00;95.80;;;;;;5037453;28;20071;-75
2022/07/29 08:06:06;;;;;;;3.50;1.55;;;21.00;95.60;;;;;;5054135;28;20404;-75
2022/07/29 08:08:33;;;;;;;5.53;1.80;;;20.90;95.60;;;;;;5053250;28;20135;-74
2022/07/29 08:11:01;;;;;;;5.28;1.75;;;20.90;96.00;;;;;;5053969;28;20050;-75
2022/07/29 08:13:29;;;;;;;5.95;1.83;;;21.00;95.80;;;;;;5052083;28;20076;-76
2022/07/29 08:16:01;;;;;;;5.90;1.98;;;20.80;95.60;;;;;;5053119;28;20052;-75
2022/07/29 08:18:29;;;;;;;3.33;1.75;;;20.70;95.60;;;;;;5053665;28;20531;-75
2022/07/29 08:20:57;;;;;;;8.40;1.77;;;20.70;95.40;;;;;;5053531;28;20094;-76
2022/07/29 08:23:24;;;;;;;5.47;1.80;;;20.90;95.10;;;;;;5052977;28;20107;-76
2022/07/29 08:25:51;;;;;;;4.18;1.80;;;20.90;94.90;;;;;;5035851;28;20053;-76
2022/07/29 08:28:19;;;;;;;6.63;2.10;;;21.00;94.90;;;;;;5036610;28;20048;-76
2022/07/29 08:30:46;;;;;;;4.53;1.60;;;21.20;95.10;;;;;;5052792;28;20051;-75
2022/07/29 08:33:13;;;;;;;7.28;2.05;;;21.20;94.60;;;;;;5053774;28;20075;-74
2022/07/29 08:35:40;;;;;;;3.65;1.67;;;21.30;94.20;;;;;;5035409;28;20057;-75
2022/07/29 08:38:07;;;;;;;13.85;1.88;;;21.60;94.00;;;;;;5053051;28;20468;-76
2022/07/29 08:40:34;;;;;;;6.05;1.70;;;22.00;93.90;;;;;;5035617;28;20049;-76
2022/07/29 08:43:06;;;;;;;8.88;2.78;;;21.90;93.40;;;;;;5034705;28;20056;-75
2022/07/29 08:45:43;;;;;;;3.58;1.75;;;21.90;93.20;;;;;;5053081;28;20061;-76
2022/07/29 08:48:10;;;;;;;4.38;1.95;;;22.00;93.30;;;;;;5044207;28;20083;-76
2022/07/29 08:50:37;;;;;;;8.70;1.75;;;22.00;93.40;;;;;;5052561;28;20053;-75
2022/07/29 08:53:05;;;;;;;6.50;2.22;;;22.00;93.10;;;;;;5053105;28;20060;-75
2022/07/29 08:55:33;;;;;;;3.03;1.67;;;22.10;93.10;;;;;;5052068;28;20060;-75
2022/07/29 08:58:00;;;;;;;4.18;1.67;;;22.00;92.90;;;;;;5052477;28;20049;-75
2022/07/29 09:00:28;;;;;;;8.27;1.70;;;22.00;92.80;;;;;;5052850;28;20041;-76
2022/07/29 09:03:00;;;;;;;5.13;2.05;;;22.20;92.80;;;;;;5035360;28;20144;-76
2022/07/29 09:05:28;;;;;;;6.55;2.13;;;22.20;92.50;;;;;;5051491;28;20409;-75
2022/07/29 09:07:55;;;;;;;5.57;2.15;;;22.30;92.50;;;;;;5035657;28;20052;-76
2022/07/29 09:10:22;;;;;;;7.45;2.40;;;22.30;92.60;;;;;;5052911;28;20055;-75
2022/07/29 09:12:49;;;;;;;4.88;1.83;;;22.30;92.30;;;;;;5043472;28;20049;-75
2022/07/29 09:15:16;;;;;;;3.85;2.15;;;22.60;92.60;;;;;;5042905;28;20059;-75
2022/07/29 09:17:44;;;;;;;5.28;2.17;;;22.80;92.60;;;;;;5035067;28;20406;-75
2022/07/29 09:20:15;;;;;;;5.13;2.05;;;23.10;92.10;;;;;;5052235;28;20162;-76
2022/07/29 09:22:43;;;;;;;7.40;1.73;;;23.20;91.20;;;;;;5035335;28;20473;-75
2022/07/29 09:25:13;;;;;;;5.15;1.67;;;23.50;91.80;;;;;;5051944;28;20689;-75
2022/07/29 09:27:40;;;;;;;4.97;2.05;;;23.70;91.60;;;;;;5034067;28;20041;-76
2022/07/29 09:30:10;;;;;;;5.60;1.70;;;23.70;91.40;;;;;;5051566;28;20053;-76
2022/07/29 09:32:51;;;;;;;;;;;23.50;90.80;;;;;;5052735;28;20140;-76
2022/07/29 09:35:22;;;;;;;6.43;1.88;;;23.30;90.50;;;;;;5034666;28;20435;-75
2022/07/29 09:37:49;;;;;;;6.47;2.28;;;23.30;91.10;;;;;;5052734;28;20045;-74
2022/07/29 09:40:18;;;;;;;4.45;2.10;;;23.10;91.50;;;;;;5032734;28;20049;-75
2022/07/29 09:42:46;;;;;;;5.85;2.10;;;23.00;91.60;;;;;;5052224;28;20441;-75
2022/07/29 09:45:14;;;;;;;5.78;2.30;;;22.90;91.60;;;;;;5052106;28;20087;-75
2022/07/29 09:47:48;;;;;;;5.82;2.20;;;22.60;91.40;;;;;;5037024;28;20650;-76
2022/07/29 09:50:18;;;;;;;4.18;2.22;;;22.50;91.00;;;;;;5051290;28;20056;-76
2022/07/29 09:52:49;;;;;;;8.38;1.98;;;22.50;91.70;;;;;;5051565;28;20047;-76
2022/07/29 09:55:17;;;;;;;8.10;2.15;;;22.30;91.80;;;;;;5050012;28;20059;-76
2022/07/29 09:57:44;;;;;;;5.88;2.17;;;22.30;92.20;;;;;;5034180;28;20053;-78
2022/07/29 10:00:14;;;;;;;4.57;1.77;;;22.40;92.40;;;;;;5034061;28;20142;-75
2022/07/29 10:02:44;;;;;;;3.08;1.65;;;22.20;92.40;;;;;;5051635;28;20053;-76
2022/07/29 10:05:19;;;;;;;6.30;2.58;;;22.30;92.50;;;;;;5033205;28;20052;-74
2022/07/29 10:07:49;;;;;;;8.63;2.10;;;22.30;92.50;;;;;;5032946;28;20057;-76
2022/07/29 10:10:23;;;;;;;10.13;2.25;;;22.20;92.50;;;;;;5034278;28;20106;-77
2022/07/29 10:12:52;;;;;;;7.93;2.25;;;22.30;92.50;;;;;;5026339;28;20118;-75
2022/07/29 10:15:20;;;;;;;5.63;2.17;;;22.20;92.70;;;;;;5018255;28;20137;-76
2022/07/29 10:17:48;;;;;;;5.57;2.00;;;22.30;92.80;;;;;;5017294;28;20053;-75
2022/07/29 10:20:16;;;;;;;8.82;2.63;;;22.30;92.50;;;;;;5037849;28;20092;-75
2022/07/29 10:22:43;;;;;;;23.65;4.28;;;22.30;92.60;;;;;;5035986;28;20046;-75
2022/07/29 10:25:12;;;;;;;8.00;2.22;;;22.40;92.50;;;;;;5052510;28;20049;-75
2022/07/29 10:27:39;;;;;;;5.05;2.03;;;22.50;92.80;;;;;;5038294;28;20045;-75
2022/07/29 10:30:08;;;;;;;4.97;1.98;;;22.70;92.30;;;;;;5045708;28;20134;-76
2022/07/29 10:32:52;;;;;;;5.30;1.80;;;22.70;91.90;;;;;;5034347;28;20527;-76
2022/07/29 10:35:39;;;;;;;3.47;1.58;;;22.90;91.80;;;;;;5034508;28;20049;-75
2022/07/29 10:38:28;;;;;;;3.45;1.70;;;22.80;91.50;;;;;;5039559;28;20076;-75
2022/07/29 10:41:27;;;;;;;7.22;2.67;;;22.90;91.40;;;;;;5024850;28;20077;-76
2022/07/29 10:43:59;;;;;;;5.28;2.03;;;23.00;91.50;;;;;;5004429;28;20089;-76
2022/07/29 10:46:26;;;;;;;8.82;3.25;;;23.00;91.60;;;;;;5020892;28;20477;-75
2022/07/29 10:49:15;;;;;;;7.57;2.17;;;23.10;91.70;;;;;;5026026;28;20122;-80
2022/07/29 10:52:03;;;;;;;5.15;1.88;;;23.10;91.30;;;;;;5011531;28;20053;-79
2022/07/29 10:54:46;;;;;;;5.43;2.05;;;23.10;91.30;;;;;;5038547;28;20544;-79
2022/07/29 10:57:20;;;;;;;5.60;1.67;;;23.00;91.50;;;;;;5038569;28;20085;-79
2022/07/29 10:59:48;;;;;;;7.57;2.33;;;23.00;91.60;;;;;;5031135;28;20049;-78
2022/07/29 11:02:43;;;;;;;11.18;2.58;;;22.90;91.60;;;;;;5027611;28;20057;-78
2022/07/29 11:05:12;;;;;;;8.95;1.95;;;22.80;91.60;;;;;;5018681;28;20049;-80
2022/07/29 11:07:41;;;;;;;4.85;1.85;;;22.80;91.80;;;;;;5028871;28;20045;-79
2022/07/29 11:10:22;;;;;;;3.88;1.95;;;22.80;92.00;;;;;;5024487;28;20611;-79
2022/07/29 11:12:51;;;;;;;3.60;2.05;;;22.70;91.70;;;;;;5013822;28;20053;-79
2022/07/29 11:15:20;;;;;;;12.02;2.03;;;22.70;92.00;;;;;;5046459;28;20075;-79
2022/07/29 11:18:07;;;;;;;5.57;2.58;;;22.70;91.80;;;;;;5029070;28;20049;-78
2022/07/29 11:20:37;;;;;;;8.50;2.58;;;22.60;91.80;;;;;;5026205;28;20049;-77
2022/07/29 11:23:19;;;;;;;10.20;2.33;;;22.60;92.10;;;;;;5021167;28;20140;-80
2022/07/29 11:25:47;;;;;;;5.32;2.30;;;22.60;92.50;;;;;;5040381;28;20052;-78
2022/07/29 11:28:22;;;;;;;6.75;2.22;;;22.60;92.40;;;;;;5019171;28;20049;-78
2022/07/29 11:30:50;;;;;;;8.38;3.08;;;22.70;92.60;;;;;;5033923;28;20049;-79
2022/07/29 11:33:29;;;;;;;5.97;2.53;;;22.80;92.40;;;;;;5035524;28;20061;-78
2022/07/29 11:36:10;;;;;;;6.40;2.47;;;23.00;92.00;;;;;;5041254;28;20509;-77
2022/07/29 11:38:37;;;;;;;8.57;2.28;;;23.10;92.20;;;;;;5018807;28;20536;-79
2022/07/29 11:41:24;;;;;;;4.35;2.30;;;23.20;92.20;;;;;;5021960;28;20065;-78
2022/07/29 11:43:53;;;;;;;5.97;2.65;;;23.40;91.90;;;;;;5050744;28;20063;-78
2022/07/29 11:46:44;;;;;;;6.95;2.72;;;23.50;91.70;;;;;;5046859;28;20084;-77
2022/07/29 11:49:12;;;;;;;6.75;2.50;;;23.80;91.70;;;;;;5026213;28;20516;-79
2022/07/29 11:51:39;;;;;;;4.40;2.20;;;23.90;91.40;;;;;;5054291;28;20496;-78
2022/07/29 11:54:10;;;;;;;6.18;2.30;;;24.00;91.30;;;;;;5036108;28;20057;-79
2022/07/29 11:56:43;;;;;;;7.72;2.50;;;24.30;91.00;;;;;;5056388;28;20060;-79
2022/07/29 11:59:12;;;;;;;5.53;2.13;;;24.70;90.40;;;;;;5061537;28;20053;-82
2022/07/29 12:01:53;;;;;;;5.82;2.40;;;25.00;90.10;;;;;;5055661;28;20045;-80
2022/07/29 12:04:19;;;;;;;8.32;2.17;;;25.40;89.40;;;;;;5036712;28;20091;-81
2022/07/29 12:06:51;;;;;;;8.35;2.28;;;25.70;90.10;;;;;;5054395;28;20382;-81
2022/07/29 12:09:18;;;;;;;8.68;2.05;;;26.30;89.40;;;;;;5053701;28;20132;-81
2022/07/29 12:11:46;;;;;;;6.50;2.03;;;26.70;88.80;;;;;;5053105;28;20140;-82
2022/07/29 12:14:27;;;;;;;6.13;2.22;;;26.80;87.70;;;;;;5039887;28;20137;-80
2022/07/29 12:16:54;;;;;;;5.40;2.25;;;27.10;87.00;;;;;;5036358;28;20295;-82
2022/07/29 12:19:21;;;;;;;4.05;2.33;;;27.40;87.10;;;;;;5036003;28;20088;-81
2022/07/29 12:21:49;;;;;;;5.32;2.33;;;27.60;86.40;;;;;;5053639;28;20053;-81
2022/07/29 12:24:16;;;;;;;7.53;3.00;;;27.80;86.70;;;;;;5036341;28;20098;-81
2022/07/29 12:26:51;;;;;;;6.75;2.72;;;28.00;86.00;;;;;;5035985;28;20048;-82
2022/07/29 12:29:18;;;;;;;5.68;2.45;;;28.40;85.10;;;;;;5052592;28;20045;-81
2022/07/29 12:31:47;;;;;;;6.95;2.60;;;28.00;84.50;;;;;;5054141;28;20053;-82
2022/07/29 12:34:16;;;;;;;7.10;2.22;;;28.30;84.20;;;;;;5036855;28;20455;-81
2022/07/29 12:36:44;;;;;;;7.05;2.03;;;28.20;84.10;;;;;;5053256;28;20053;-81
2022/07/29 12:39:12;;;;;;;5.07;2.08;;;28.10;84.50;;;;;;5035362;28;20061;-81
2022/07/29 12:41:39;;;;;;;11.57;2.47;;;27.80;84.20;;;;;;5035910;28;20057;-82
2022/07/29 12:44:06;;;;;;;3.78;2.17;;;28.10;84.60;;;;;;5053359;28;20522;-82
2022/07/29 12:46:33;;;;;;;4.82;2.38;;;28.70;84.10;;;;;;5036126;28;20124;-81
2022/07/29 12:49:02;;;;;;;3.85;2.10;;;29.00;83.30;;;;;;5035857;28;20103;-81
2022/07/29 12:51:32;;;;;;;4.43;2.00;;;28.80;81.40;;;;;;5035907;28;20429;-81
2022/07/29 12:54:10;;;;;;;6.25;2.00;;;28.80;81.00;;;;;;5053671;28;20598;-81
2022/07/29 12:56:38;;;;;;;4.15;1.80;;;28.60;81.20;;;;;;5035246;28;20154;-81
2022/07/29 12:59:16;;;;;;;6.93;2.15;;;28.60;81.80;;;;;;5053404;28;20492;-82
2022/07/29 13:01:43;;;;;;;4.55;2.25;;;28.70;81.10;;;;;;5035614;28;20049;-82
2022/07/29 13:04:12;;;;;;;5.60;1.90;;;29.20;80.60;;;;;;5035168;28;20051;-82
2022/07/29 13:06:40;;;;;;;5.28;1.92;;;29.80;79.70;;;;;;5053283;28;20041;-82
2022/07/29 13:09:10;;;;;;;6.07;1.50;;;30.20;78.30;;;;;;5052419;28;20041;-81
2022/07/29 13:11:40;;;;;;;3.80;1.40;;;30.80;75.00;;;;;;5052916;28;20049;-82